Time;durP1;ratioP1;P1;durP2;ratioP2;P2;SDS_P1;SDS_P2;PMS_P1;PMS_P2;Temp;Humidity;BMP_temperature;BMP_pressure;BME280_temperature;BME280_humidity;BME280_pressure;Samples;Min_cycle;Max_cycle;Signal;HPM_P1;HPM_P2
2023/02/14 00:00:32;;;;;;;;;85.00;71.00;;;;;5.66;65.27;103232.69;1968567;28;2906821;-75
2023/02/14 00:01:47;;;;;;;;;90.75;80.88;;;;;5.66;65.49;103227.47;1969811;28;3664784;-75
2023/02/14 00:02:58;;;;;;;;;95.50;84.00;;;;;5.64;65.04;103227.44;1968778;28;2903426;-75
2023/02/14 00:04:10;;;;;;;;;85.80;79.40;;;;;5.63;65.24;103226.56;1972584;28;3641904;-75
2023/02/14 00:05:22;;;;;;;;;92.40;79.20;;;;;5.62;65.23;103222.19;1965146;28;3658515;-75
2023/02/14 00:06:37;;;;;;;;;91.13;82.00;;;;;5.62;65.29;103223.91;1970208;28;3655398;-75
2023/02/14 00:07:48;;;;;;;;;87.50;72.50;;;;;5.60;65.50;103226.50;1960642;28;2904429;-75
2023/02/14 00:09:02;;;;;;;;;90.13;82.25;;;;;5.59;65.48;103227.31;1975770;28;3662725;-75
2023/02/14 00:10:13;;;;;;;;;89.00;75.50;;;;;5.59;65.20;103227.31;1971889;28;2567985;-75
2023/02/14 00:11:25;;;;;;;;;95.80;82.80;;;;;5.58;65.28;103225.53;1976813;28;3657836;-75
2023/02/14 00:12:39;;;;;;;;;95.00;84.25;;;;;5.57;65.35;103228.13;1976128;28;3660594;-75
2023/02/14 00:15:23;;;;;;;;;96.00;82.00;;;;;5.55;65.61;103222.88;1968425;28;2909629;-75
2023/02/14 00:16:36;;;;;;;;;93.00;82.75;;;;;5.53;65.46;103221.94;1970266;28;3664842;-75
2023/02/14 00:17:58;;;;;;;;;89.00;75.00;;;;;5.53;65.24;103224.56;1985814;28;2915885;-75
2023/02/14 00:19:12;;;;;;;;;95.50;83.25;;;;;5.53;65.24;103221.94;1960418;28;3658640;-75
2023/02/14 00:20:23;;;;;;;;;90.00;78.00;;;;;5.51;65.02;103227.09;1983235;28;2921175;-75
2023/02/14 00:21:37;;;;;;;;;96.20;86.60;;;;;5.50;65.68;103216.63;1963696;28;3653338;-75
2023/02/14 00:22:50;;;;;;;;;101.75;85.50;;;;;5.49;65.31;103220.06;1971451;28;3663762;-75
2023/02/14 00:24:03;;;;;;;;;99.50;80.50;;;;;5.47;65.39;103227.88;1976288;28;2917927;-75
2023/02/14 00:25:16;;;;;;;;;98.00;86.00;;;;;5.46;65.44;103227.78;1963965;28;3669342;-75
2023/02/14 00:26:27;;;;;;;;;88.00;73.67;;;;;5.46;65.56;103225.19;1995778;28;3647105;-75
2023/02/14 00:27:39;;;;;;;;;96.60;83.60;;;;;5.45;65.41;103231.25;1987325;28;3671106;-75
2023/02/14 00:28:51;;;;;;;;;94.20;84.80;;;;;5.44;65.55;103232.97;1979969;28;3649145;-75
2023/02/14 00:30:06;;;;;;;;;88.00;75.25;;;;;5.43;65.19;103230.34;1976463;28;3672174;-75
2023/02/14 00:31:18;;;;;;;;;91.50;82.50;;;;;5.42;65.24;103225.94;1990465;28;3654408;-75
2023/02/14 00:32:31;;;;;;;;;89.50;78.50;;;;;5.40;65.50;103232.03;1990622;28;3658729;-75
2023/02/14 00:33:41;;;;;;;;;101.50;82.50;;;;;5.40;65.36;103226.81;1987190;28;2571090;-75
2023/02/14 00:34:54;;;;;;;;;98.60;84.40;;;;;5.38;65.47;103223.25;1983451;28;3674154;-75
2023/02/14 00:36:06;;;;;;;;;90.50;78.00;;;;;5.39;65.28;103224.13;1969365;28;2899170;-75
2023/02/14 00:37:16;;;;;;;;;88.50;78.00;;;;;5.38;65.57;103223.25;1953261;28;2897127;-75
2023/02/14 00:38:29;;;;;;;;;91.40;84.80;;;;;5.38;65.49;103225.00;1970923;28;3657500;-75
2023/02/14 00:39:41;;;;;;;;;91.00;84.50;;;;;5.36;65.18;103224.06;1958403;28;3651599;-75
2023/02/14 00:40:52;;;;;;;;;95.00;84.50;;;;;5.35;65.47;103223.19;1983432;28;2913129;-75
2023/02/14 00:42:04;;;;;;;;;90.20;79.60;;;;;5.34;65.43;103216.19;1977680;28;3647084;-75
2023/02/14 00:43:16;;;;;;;;;93.00;83.80;;;;;5.34;65.53;103223.09;1978157;28;3656436;-75
2023/02/14 00:44:28;;;;;;;;;95.00;81.20;;;;;5.32;65.47;103220.47;1986276;28;3668936;-75
2023/02/14 00:45:40;;;;;;;;;85.40;71.60;;;;;5.31;65.50;103213.47;1994104;28;3658599;-75
2023/02/14 00:46:54;;;;;;;;;104.63;87.63;;;;;5.31;65.30;103216.06;1983649;28;3684582;-75
2023/02/14 00:48:08;;;;;;;;;91.00;83.50;;;;;5.31;65.43;103221.28;1975987;28;3648158;-75
2023/02/14 00:49:20;;;;;;;;;90.67;84.67;;;;;5.30;65.68;103214.31;1965923;28;3651676;-75
2023/02/14 00:50:32;;;;;;;;;85.00;66.33;;;;;5.28;65.65;103210.78;1983140;28;3652353;-75
2023/02/14 00:51:43;;;;;;;;;90.00;76.50;;;;;5.27;65.70;103209.00;1974442;28;2570068;-75
2023/02/14 00:52:57;;;;;;;;;92.50;78.63;;;;;5.28;65.51;103208.19;1973945;28;3658578;-75
2023/02/14 00:54:09;;;;;;;;;88.60;78.80;;;;;5.27;65.44;103206.41;1987036;28;3654383;-75
2023/02/14 00:55:21;;;;;;;;;92.20;83.00;;;;;5.25;65.67;103206.38;1980607;28;3652276;-75
2023/02/14 00:56:32;;;;;;;;;82.60;64.20;;;;;5.25;65.56;103210.69;1963451;28;2897598;-75
2023/02/14 00:57:45;;;;;;;;;88.25;81.25;;;;;5.26;65.49;103207.25;2000308;28;3654695;-75
2023/02/14 00:58:57;;;;;;;;;94.50;83.00;;;;;5.24;65.56;103201.09;1996573;28;4426602;-75
2023/02/14 01:00:10;;;;;;;;;83.60;69.20;;;;;5.22;65.48;103202.78;2003647;28;3642921;-75
2023/02/14 01:01:21;;;;;;;;;91.67;77.67;;;;;5.22;65.40;103202.78;1961755;28;2922198;-75
2023/02/14 01:02:33;;;;;;;;;88.33;78.67;;;;;5.22;65.77;103201.06;1973280;28;3635632;-75
2023/02/14 01:03:46;;;;;;;;;89.80;72.80;;;;;5.21;65.43;103204.50;1971755;28;3671365;-75
2023/02/14 01:04:56;;;;;;;;;95.00;76.00;;;;;5.21;65.45;103201.88;1956961;28;2574219;-75
2023/02/14 01:06:11;;;;;;;;;88.11;71.22;;;;;5.21;65.49;103201.03;1975550;28;3676261;-75
2023/02/14 01:07:22;;;;;;;;;93.50;83.50;;;;;5.20;65.75;103207.06;1983574;28;2900255;-75
2023/02/14 01:08:35;;;;;;;;;90.50;78.75;;;;;5.17;65.40;103200.94;1974140;28;3658512;-75
2023/02/14 01:09:46;;;;;;;;;88.67;78.00;;;;;5.17;65.31;103197.44;1981294;28;3649249;-75
2023/02/14 01:11:10;;;;;;;;;97.80;81.20;;;;;5.15;65.86;103199.09;1979600;28;3669988;-75
2023/02/14 01:12:20;;;;;;;;;92.00;74.00;;;;;5.14;65.23;103198.22;1963096;28;2570064;-75
2023/02/14 01:13:32;;;;;;;;;89.80;78.80;;;;;5.14;65.19;103199.94;1977637;28;3648098;-75
2023/02/14 01:14:44;;;;;;;;;87.00;78.20;;;;;5.14;65.60;103203.44;1978867;28;3651279;-75
2023/02/14 01:16:05;;;;;;;;;95.63;78.38;;;;;5.14;65.51;103200.81;1976714;28;3686683;-75
2023/02/14 01:17:16;;;;;;;;;91.00;78.50;;;;;5.12;65.77;103192.06;1960069;28;2917952;-75
2023/02/14 01:18:30;;;;;;;;;94.13;82.00;;;;;5.13;65.61;103195.56;1967003;28;3663831;-75
2023/02/14 01:19:44;;;;;;;;;91.50;79.50;;;;;5.12;65.43;103191.19;1961825;28;3675225;-75
2023/02/14 01:20:56;;;;;;;;;93.00;82.00;;;;;5.11;65.54;103189.44;1955953;28;3651486;-75
2023/02/14 01:22:07;;;;;;;;;88.00;75.50;;;;;5.10;65.33;103191.16;1983666;28;2916930;-75
2023/02/14 01:23:20;;;;;;;;;88.50;78.00;;;;;5.09;65.93;103191.97;1974627;28;3653450;-75
2023/02/14 01:24:31;;;;;;;;;86.00;71.33;;;;;5.07;65.50;103193.66;1985006;28;2917935;-75
2023/02/14 01:25:43;;;;;;;;;96.33;80.33;;;;;5.06;65.65;103197.13;1990014;28;3678306;-75
2023/02/14 01:26:55;;;;;;;;;90.60;76.20;;;;;5.05;65.33;103192.72;2015637;28;3658512;-75
2023/02/14 01:28:09;;;;;;;;;90.38;76.50;;;;;5.03;65.38;103197.91;1980495;28;3661652;-75
2023/02/14 01:29:23;;;;;;;;;87.89;70.44;;;;;5.02;65.45;103192.63;1967791;28;3684588;-75
2023/02/14 01:30:35;;;;;;;;;95.00;73.00;;;;;5.01;65.55;103201.31;1967706;28;2912759;-75
2023/02/14 01:31:47;;;;;;;;;88.00;74.00;;;;;4.99;65.48;103195.16;1952803;28;2900256;-75
2023/02/14 01:32:58;;;;;;;;;87.50;74.00;;;;;4.99;65.74;103195.16;1960660;28;2911762;-75
2023/02/14 01:34:11;;;;;;;;;88.00;76.75;;;;;4.97;65.34;103196.81;1974737;28;3655492;-75
2023/02/14 01:35:23;;;;;;;;;91.00;78.50;;;;;4.97;65.12;103199.44;1979751;28;2566916;-75
2023/02/14 01:36:37;;;;;;;;;88.00;73.00;;;;;4.96;65.60;103198.56;1965390;28;2571633;-75
2023/02/14 01:37:48;;;;;;;;;82.67;69.00;;;;;4.95;65.57;103204.59;1961972;28;3649220;-75
2023/02/14 01:39:05;;;;;;;;;87.83;73.50;;;;;4.94;65.31;103201.09;1975780;28;3678353;-75
2023/02/14 01:40:19;;;;;;;;;86.50;75.00;;;;;4.93;65.41;103204.56;1983341;28;3646074;-75
2023/02/14 01:41:34;;;;;;;;;86.50;72.75;;;;;4.93;65.55;103199.34;1988386;28;3658646;-75
2023/02/14 01:42:44;;;;;;;;;92.50;79.50;;;;;4.93;65.67;103195.84;1984406;28;2898666;-75
2023/02/14 01:44:06;;;;;;;;;87.80;72.40;;;;;4.93;65.51;103204.56;1977885;28;3675193;-75
2023/02/14 01:45:24;;;;;;;;;89.50;74.00;;;;;4.92;65.77;103196.69;1964214;28;2571122;-75
2023/02/14 01:46:36;;;;;;;;;87.00;74.00;;;;;4.91;65.54;103195.81;1961723;28;2573180;-75
2023/02/14 01:47:52;;;;;;;;;90.50;76.00;;;;;4.91;65.56;103202.75;1968547;28;4429368;-75
2023/02/14 01:49:24;;;;;;;;;90.00;77.00;;;;;4.90;65.60;103204.47;1991422;28;2908577;-75
2023/02/14 01:50:41;;;;;;;;;89.00;71.00;;;;;4.90;65.76;103198.38;1968290;28;2912759;-75
2023/02/14 01:52:00;;;;;;;;;87.00;71.25;;;;;4.87;65.60;103196.53;1968949;28;4438823;-75
2023/02/14 01:53:23;;;;;;;;;83.50;69.50;;;;;4.88;65.46;103200.94;1983328;28;2905484;-75
2023/02/14 01:54:40;;;;;;;;;87.50;68.00;;;;;4.88;65.88;103200.03;1945997;28;2569066;-75
2023/02/14 01:56:01;;;;;;;;;89.50;73.50;;;;;4.87;65.92;103195.66;1961695;28;2910684;-75
2023/02/14 01:57:16;;;;;;;;;90.00;76.50;;;;;4.86;65.58;103196.50;1951731;28;2911734;-75
2023/02/14 01:58:33;;;;;;;;;89.00;77.00;;;;;4.84;65.39;103192.13;1961546;28;2898157;-75
2023/02/14 01:59:52;;;;;;;;;86.50;72.50;;;;;4.85;65.45;103200.84;1961791;28;3656530;-75
2023/02/14 02:01:05;;;;;;;;;88.50;74.00;;;;;4.82;65.53;103196.41;1985174;28;3657555;-75
2023/02/14 02:02:22;;;;;;;;;86.50;65.00;;;;;4.82;65.76;103196.41;1985285;28;2917963;-75
2023/02/14 02:03:45;;;;;;;;;90.75;78.00;;;;;4.82;65.55;103192.91;1977043;28;3670063;-75
2023/02/14 02:04:56;;;;;;;;;86.00;67.50;;;;;4.81;65.42;103198.97;1992046;28;2910685;-75
2023/02/14 02:06:16;;;;;;;;;90.00;76.20;;;;;4.80;65.73;103198.09;1984751;28;3660985;-75
2023/02/14 02:07:29;;;;;;;;;87.25;76.00;;;;;4.80;65.62;103194.59;1966678;28;3650302;-75
2023/02/14 02:08:49;;;;;;;;;89.00;72.50;;;;;4.79;65.71;103200.66;1981430;28;2575324;-75
2023/02/14 02:10:03;;;;;;;;;86.00;74.00;;;;;4.78;65.73;103197.16;1963277;28;2904437;-75
2023/02/14 02:11:13;;;;;;;;;86.00;72.00;;;;;4.78;65.69;103188.44;1959043;28;2565886;-75
2023/02/14 02:12:27;;;;;;;;;88.00;74.38;;;;;4.77;65.57;103186.66;1975368;28;3670043;-75
2023/02/14 02:13:40;;;;;;;;;87.83;72.50;;;;;4.77;65.47;103194.47;1973449;28;3679368;-75
2023/02/14 02:14:54;;;;;;;;;88.00;77.00;;;;;4.76;65.62;103200.53;1985857;28;2897122;-75
2023/02/14 02:16:50;;;;;;;;;90.50;75.00;;;;;4.73;65.75;103189.19;1955542;28;2571062;-75
2023/02/14 02:18:42;;;;;;;;;92.00;75.50;;;;;4.71;65.57;103183.06;1950196;28;2574229;-75
2023/02/14 02:20:21;;;;;;;;;89.00;73.50;;;;;4.69;65.51;103184.69;1928446;28;2923179;-75
2023/02/14 02:21:46;;;;;;;;;90.00;73.00;;;;;4.68;65.65;103184.66;1934903;28;2565931;-75
2023/02/14 02:23:21;;;;;;;;;90.00;74.00;;;;;4.67;65.46;103193.31;1961792;28;2919356;-75
2023/02/14 02:24:45;;;;;;;;;92.25;78.00;;;;;4.66;65.88;103188.94;1956485;28;4426263;-75
2023/02/14 02:26:33;;;;;;;;;88.50;77.50;;;;;4.66;65.63;103188.94;1986162;28;2884623;-75
2023/02/14 02:27:46;;;;;;;;;90.00;70.50;;;;;4.65;66.00;103195.88;1957695;28;2570045;-75
2023/02/14 02:29:18;;;;;;;;;96.50;81.50;;;;;4.64;65.85;103196.72;1960490;28;2910704;-75
2023/02/14 02:30:52;;;;;;;;;90.00;79.25;;;;;4.64;65.88;103198.44;1964396;28;3660650;-75
2023/02/14 02:32:19;;;;;;;;;82.33;62.33;;;;;4.63;65.97;103197.56;1991730;28;3646062;-75
2023/02/14 02:34:03;;;;;;;;;87.00;77.50;;;;;4.61;65.90;103196.63;1969043;28;2905464;-75
2023/02/14 02:35:30;;;;;;;;;96.00;82.75;;;;;4.60;65.93;103194.84;1968600;28;3668057;-75
2023/02/14 02:36:51;;;;;;;;;95.00;75.00;;;;;4.60;66.04;103194.84;1990511;28;2922201;-75
2023/02/14 02:38:16;;;;;;;;;90.00;77.00;;;;;4.59;65.89;103198.31;1966504;28;2573193;-75
2023/02/14 02:40:22;;;;;;;;;91.00;75.50;;;;;4.58;65.94;103193.91;1967188;28;2571118;-75
2023/02/14 02:41:47;;;;;;;;;94.00;77.50;;;;;4.58;66.36;103191.31;1928747;28;2570062;-75
2023/02/14 02:43:20;;;;;;;;;91.00;79.00;;;;;4.56;66.05;103187.78;1975052;28;3646058;-75
2023/02/14 02:44:50;;;;;;;;;90.00;77.50;;;;;4.55;65.97;103186.88;1964245;28;4414805;-75
2023/02/14 02:46:48;;;;;;;;;88.00;75.00;;;;;4.55;65.79;103184.28;1987466;28;3656500;-75
2023/02/14 02:48:16;;;;;;;;;94.75;78.00;;;;;4.52;65.98;103176.34;1968452;28;4422074;-75
2023/02/14 02:53:07;;;;;;;;;91.75;76.75;;;;;4.49;66.21;103182.34;1991529;28;3658569;-75
2023/02/14 02:54:36;;;;;;;;;102.00;82.50;;;;;4.49;66.09;103179.75;1985311;28;2565897;-75
2023/02/14 02:56:45;;;;;;;;;94.00;83.50;;;;;4.49;65.94;103177.13;1960779;28;2899206;-75
2023/02/14 02:57:59;;;;;;;;;93.50;83.25;;;;;4.50;66.10;103178.91;1964782;28;3658573;-75
2023/02/14 02:59:19;;;;;;;;;96.00;82.00;;;;;4.51;65.83;103182.41;1990897;28;2905463;-75
2023/02/14 03:00:30;;;;;;;;;97.00;82.50;;;;;4.49;65.92;103179.75;1964383;28;2573173;-75
2023/02/14 03:01:49;;;;;;;;;101.50;80.50;;;;;4.49;66.17;103173.69;1972564;28;4441853;-75
2023/02/14 03:04:52;;;;;;;;;91.50;77.50;;;;;4.47;66.16;103178.81;1990248;28;3664828;-75
2023/02/14 03:06:03;;;;;;;;;102.50;89.50;;;;;4.47;65.51;103176.22;1985522;28;2575289;-75
2023/02/14 03:08:44;;;;;;;;;92.00;79.67;;;;;4.45;65.66;103174.38;1961214;28;3654401;-75
2023/02/14 03:10:05;;;;;;;;;96.38;83.63;;;;;4.44;65.96;103168.31;1982960;28;3668998;-75
2023/02/14 03:11:16;;;;;;;;;93.00;81.50;;;;;4.43;65.82;103176.06;1960228;28;2904415;-75
2023/02/14 03:12:33;;;;;;;;;92.60;76.00;;;;;4.42;65.73;103177.78;1971509;28;3664789;-75
2023/02/14 03:14:14;;;;;;;;;96.33;82.33;;;;;4.41;65.63;103178.63;1968720;28;3642933;-75
2023/02/14 03:15:46;;;;;;;;;112.00;94.00;;;;;4.41;65.62;103172.53;1967357;28;2925295;-75
2023/02/14 03:17:16;;;;;;;;;101.50;87.00;;;;;4.38;66.06;103178.53;1967983;28;2917299;-75
2023/02/14 03:20:48;;;;;;;;;96.00;84.00;;;;;4.35;65.74;103178.41;1959918;28;2573228;-75
2023/02/14 03:22:05;;;;;;;;;97.50;79.00;;;;;4.33;65.97;103170.56;1956226;28;2571105;-75
2023/02/14 03:23:26;;;;;;;;;93.00;82.50;;;;;4.31;65.96;103174.84;1960712;28;3653347;-75
2023/02/14 03:24:43;;;;;;;;;99.50;88.00;;;;;4.31;65.79;103171.34;1982281;28;2583653;-75
2023/02/14 03:25:56;;;;;;;;;103.50;88.00;;;;;4.30;66.15;103174.81;1960896;28;3673254;-75
2023/02/14 03:27:20;;;;;;;;;101.50;87.50;;;;;4.29;66.11;103173.91;1981856;28;2573193;-75
2023/02/14 03:28:31;;;;;;;;;101.00;83.50;;;;;4.27;65.95;103175.59;1959291;28;2572167;-75
2023/02/14 03:30:07;;;;;;;;;98.25;82.13;;;;;4.25;66.03;103172.91;1984089;28;3666923;-75
2023/02/14 03:31:47;;;;;;;;;99.25;87.75;;;;;4.25;65.98;103180.72;1968155;28;3652328;-75
2023/02/14 03:33:04;;;;;;;;;88.67;65.33;;;;;4.25;65.80;103177.22;1965604;28;3655527;-75
2023/02/14 03:34:50;;;;;;;;;97.50;82.00;;;;;4.25;66.08;103172.91;1956231;28;2911778;-75
2023/02/14 03:36:14;;;;;;;;;95.00;79.50;;;;;4.22;66.38;103170.19;1959929;28;2908600;-75
2023/02/14 03:37:53;;;;;;;;;95.50;79.50;;;;;4.21;65.75;103168.44;1965261;28;2567981;-75
2023/02/14 03:39:13;;;;;;;;;106.25;91.00;;;;;4.19;66.04;103170.13;1962242;28;4454371;-75
2023/02/14 03:40:37;;;;;;;;;105.50;86.00;;;;;4.20;66.09;103177.06;1987788;28;2585677;-75
2023/02/14 03:41:56;;;;;;;;;95.75;82.75;;;;;4.18;65.87;103165.72;1966924;28;4430781;-75
2023/02/14 03:43:21;;;;;;;;;95.75;77.50;;;;;4.20;66.27;103166.66;1988622;28;3662834;-75
2023/02/14 03:44:34;;;;;;;;;94.50;83.00;;;;;4.19;65.73;103172.72;1986241;28;2914849;-75
2023/02/14 03:45:53;;;;;;;;;85.25;65.00;;;;;4.19;66.04;103166.63;1972380;28;3665377;-75
2023/02/14 03:47:08;;;;;;;;;105.00;86.00;;;;;4.17;66.55;103163.97;1973758;28;2571233;-75
2023/02/14 03:48:22;;;;;;;;;91.00;80.00;;;;;4.18;65.83;103170.03;1961410;28;2910675;-75
2023/02/14 03:49:38;;;;;;;;;91.00;79.00;;;;;4.18;65.71;103173.53;1961855;28;2903396;-75
2023/02/14 03:50:52;;;;;;;;;90.25;72.75;;;;;4.17;65.82;103169.19;1961008;28;3662054;-75
2023/02/14 03:52:08;;;;;;;;;97.50;84.25;;;;;4.18;66.10;103175.25;1983285;28;4425202;-75
2023/02/14 03:53:24;;;;;;;;;101.50;85.50;;;;;4.16;65.70;103176.09;1985254;28;2922147;-75
2023/02/14 03:54:37;;;;;;;;;97.00;87.75;;;;;4.16;66.01;103175.22;1967676;28;3658551;-75
2023/02/14 03:56:11;;;;;;;;;99.00;89.00;;;;;4.15;66.27;103173.44;1996837;28;3666935;-75
2023/02/14 03:57:33;;;;;;;;;97.33;88.67;;;;;4.16;66.05;103172.59;1991046;28;3646150;-75
2023/02/14 03:58:49;;;;;;;;;106.50;90.00;;;;;4.14;65.83;103174.28;1965938;28;2577352;-75
2023/02/14 04:00:00;;;;;;;;;106.00;91.50;;;;;4.12;66.15;103175.94;1967333;28;2929428;-75
2023/02/14 04:01:11;;;;;;;;;97.00;88.00;;;;;4.12;65.96;103171.63;1959138;28;2896065;-75
2023/02/14 04:02:35;;;;;;;;;100.20;88.60;;;;;4.11;65.88;103174.16;1989106;28;3665925;-75
2023/02/14 04:03:47;;;;;;;;;103.50;89.50;;;;;4.11;65.90;103174.16;1957753;28;2922140;-75
2023/02/14 04:05:05;;;;;;;;;106.50;91.50;;;;;4.11;66.00;103176.78;1955816;28;4449558;-75
2023/02/14 04:06:18;;;;;;;;;111.33;95.67;;;;;4.09;66.00;103170.63;1981503;28;2932546;-75
2023/02/14 04:07:29;;;;;;;;;104.67;92.67;;;;;4.08;65.92;103174.94;1983687;28;2938780;-75
2023/02/14 04:08:40;;;;;;;;;104.50;83.00;;;;;4.07;66.38;103167.09;1990928;28;2926335;-75
2023/02/14 04:09:52;;;;;;;;;93.33;80.00;;;;;4.07;66.26;103161.91;1975886;28;3661667;-75
2023/02/14 04:11:05;;;;;;;;;104.80;90.20;;;;;4.07;65.83;103172.31;1978139;28;3668923;-75
2023/02/14 04:12:19;;;;;;;;;91.00;78.25;;;;;4.06;66.01;103174.00;1966459;28;3664854;-75
2023/02/14 04:13:30;;;;;;;;;101.50;87.50;;;;;4.05;66.20;103167.91;1989046;28;2571125;-75
2023/02/14 04:14:41;;;;;;;;;110.33;92.33;;;;;4.05;66.18;103175.72;1966731;28;2930824;-75
2023/02/14 04:15:53;;;;;;;;;93.00;78.33;;;;;4.05;65.73;103180.94;1989445;28;3657549;-75
2023/02/14 04:20:03;;;;;;;;;101.50;87.50;;;;;4.04;65.94;103183.50;1966202;28;2569014;-75
2023/02/14 04:21:15;;;;;;;;;95.00;81.50;;;;;4.03;66.11;103182.59;1967167;28;2912742;-75
2023/02/14 04:22:27;;;;;;;;;100.00;83.00;;;;;4.02;65.68;103179.97;1966988;28;4436645;-75
2023/02/14 04:23:39;;;;;;;;;76.67;58.67;;;;;4.00;66.27;103177.28;2006896;28;3627310;-75
2023/02/14 04:24:50;;;;;;;;;102.50;89.00;;;;;4.00;65.94;103185.09;1970395;28;2577336;-75
2023/02/14 04:26:03;;;;;;;;;105.60;88.20;;;;;3.99;66.20;103174.63;1977655;28;3690909;-75
2023/02/14 04:27:15;;;;;;;;;93.00;85.67;;;;;3.99;66.12;103180.75;1965925;28;3653338;-75
2023/02/14 04:28:29;;;;;;;;;94.63;91.63;;;;;3.98;65.99;103173.75;1975428;28;3646087;-75
2023/02/14 04:29:44;;;;;;;;;109.00;98.00;;;;;3.99;66.19;103179.84;1956327;28;2575261;-75
2023/02/14 04:30:55;;;;;;;;;112.00;100.50;;;;;3.98;65.66;103176.34;1960616;28;2940922;-75
2023/02/14 04:32:09;;;;;;;;;108.20;94.00;;;;;3.97;66.14;103179.81;1973571;28;3682477;-75
2023/02/14 04:33:20;;;;;;;;;105.00;87.50;;;;;3.96;66.07;103180.63;1968861;28;2929397;-75
2023/02/14 04:34:34;;;;;;;;;109.50;91.00;;;;;3.97;65.70;103186.72;1986768;28;4467901;-75
2023/02/14 04:35:44;;;;;;;;;106.50;89.00;;;;;3.96;65.62;103180.63;1979465;28;2577325;-75
2023/02/14 04:36:57;;;;;;;;;94.25;81.50;;;;;3.96;65.95;103180.63;1980306;28;3655969;-75
2023/02/14 04:38:09;;;;;;;;;96.25;81.25;;;;;3.95;66.21;103176.28;1988609;28;3663848;-75
2023/02/14 04:39:22;;;;;;;;;92.25;81.50;;;;;3.94;65.49;103177.97;1989800;28;3664165;-75
2023/02/14 04:40:32;;;;;;;;;92.00;86.00;;;;;3.93;65.61;103178.78;1983037;28;2898199;-75
2023/02/14 04:41:46;;;;;;;;;102.38;87.88;;;;;3.92;66.07;103174.44;1975714;28;3678409;-75
2023/02/14 04:43:03;;;;;;;;;91.33;77.33;;;;;3.93;65.96;103170.09;1975554;28;3675536;-75
2023/02/14 04:44:14;;;;;;;;;110.00;89.00;;;;;3.92;66.06;103176.16;1981397;28;2579487;-75
2023/02/14 04:45:27;;;;;;;;;98.50;86.75;;;;;3.91;66.05;103176.97;1991373;28;3671057;-75
2023/02/14 04:46:41;;;;;;;;;93.25;85.75;;;;;3.89;66.34;103176.94;1998189;28;3643936;-75
2023/02/14 04:47:53;;;;;;;;;103.20;86.20;;;;;3.88;65.90;103179.47;1978227;28;3663826;-75
2023/02/14 04:49:05;;;;;;;;;90.00;80.67;;;;;3.89;66.30;103183.84;1983260;28;3641511;-75
2023/02/14 04:50:17;;;;;;;;;93.60;81.80;;;;;3.87;65.75;103180.31;1987066;28;3652344;-75
2023/02/14 04:51:30;;;;;;;;;96.00;83.75;;;;;3.87;65.56;103177.72;1971003;28;4421032;-75
2023/02/14 04:52:42;;;;;;;;;92.33;82.67;;;;;3.86;65.83;103182.03;1998719;28;3655426;-75
2023/02/14 04:53:54;;;;;;;;;93.60;86.60;;;;;3.88;66.14;103179.47;1979260;28;3654401;-75
2023/02/14 04:55:07;;;;;;;;;88.40;78.40;;;;;3.88;65.75;103179.47;1976556;28;2895154;-75
2023/02/14 04:56:17;;;;;;;;;97.00;84.00;;;;;3.86;66.36;103181.13;1980877;28;2572679;-75
2023/02/14 04:57:31;;;;;;;;;96.25;85.75;;;;;3.85;65.81;103181.97;1978110;28;3657509;-75
2023/02/14 04:58:43;;;;;;;;;92.67;83.67;;;;;3.83;65.55;103188.00;1999854;28;3650249;-75
2023/02/14 04:59:55;;;;;;;;;91.40;76.40;;;;;3.82;65.54;103180.16;1971224;28;3674140;-75
2023/02/14 05:01:09;;;;;;;;;91.00;79.75;;;;;3.80;66.10;103182.69;1977512;28;3665842;-75
2023/02/14 05:02:21;;;;;;;;;87.80;76.20;;;;;3.79;66.18;103183.53;1987734;28;3643968;-75
2023/02/14 05:03:33;;;;;;;;;100.40;85.60;;;;;3.80;66.15;103185.28;1983195;28;3657944;-75
2023/02/14 05:04:45;;;;;;;;;102.40;87.00;;;;;3.78;66.38;103186.94;1986611;28;3667909;-75
2023/02/14 05:06:00;;;;;;;;;96.56;84.00;;;;;3.80;65.95;103190.47;1983038;28;3674176;-75
2023/02/14 05:07:12;;;;;;;;;89.67;75.67;;;;;3.78;66.16;103186.06;1989830;28;3665870;-75
2023/02/14 05:08:23;;;;;;;;;95.40;83.00;;;;;3.78;65.83;103184.34;1962414;28;2891983;-75
2023/02/14 05:09:37;;;;;;;;;91.88;77.63;;;;;3.78;65.93;103184.34;2000424;28;3677315;-75
2023/02/14 05:10:49;;;;;;;;;95.40;79.40;;;;;3.77;66.06;103193.00;1989499;28;3667910;-75
2023/02/14 05:12:03;;;;;;;;;93.13;82.25;;;;;3.77;65.66;103187.81;1969007;28;3656527;-75
2023/02/14 05:13:14;;;;;;;;;92.00;78.00;;;;;3.76;65.92;103199.03;1967225;28;2579496;-75
2023/02/14 05:14:26;;;;;;;;;95.20;81.80;;;;;3.75;65.76;103186.88;1984016;28;3658555;-75
2023/02/14 05:15:38;;;;;;;;;92.40;77.60;;;;;3.75;65.47;103186.88;1984660;28;3669977;-75
2023/02/14 05:16:52;;;;;;;;;92.25;76.75;;;;;3.74;65.91;103182.47;1977339;28;3680448;-75
2023/02/14 05:18:04;;;;;;;;;89.80;76.80;;;;;3.74;66.11;103190.28;1978750;28;3652290;-75
2023/02/14 05:19:16;;;;;;;;;89.80;74.80;;;;;3.73;65.82;103183.28;1963940;28;3667914;-75
2023/02/14 05:20:30;;;;;;;;;91.25;78.38;;;;;3.72;65.84;103181.53;1976841;28;3662729;-75
2023/02/14 05:21:41;;;;;;;;;97.00;81.50;;;;;3.71;65.75;103180.66;1991746;28;2909705;-75
2023/02/14 05:22:53;;;;;;;;;92.00;78.40;;;;;3.71;66.00;103187.56;1986619;28;3672080;-75
2023/02/14 05:24:08;;;;;;;;;92.67;74.22;;;;;3.71;66.14;103184.97;1984823;28;3679371;-75
2023/02/14 05:25:19;;;;;;;;;90.67;80.33;;;;;3.71;65.63;103185.84;1991271;28;3649167;-75
2023/02/14 05:26:33;;;;;;;;;100.13;88.38;;;;;3.70;65.81;103188.41;1982900;28;3679465;-75
2023/02/14 05:27:47;;;;;;;;;95.88;82.38;;;;;3.70;66.20;103178.00;1984532;28;3680429;-75
2023/02/14 05:28:59;;;;;;;;;92.60;79.60;;;;;3.69;66.28;103179.72;1984622;28;3661651;-75
2023/02/14 05:30:12;;;;;;;;;95.40;82.00;;;;;3.70;65.60;103181.47;1982726;28;3666303;-75
2023/02/14 05:31:22;;;;;;;;;97.00;86.00;;;;;3.70;65.99;103178.00;1963427;28;2576290;-75
2023/02/14 05:32:34;;;;;;;;;98.00;85.00;;;;;3.69;65.90;103171.03;1983364;28;3655450;-75
2023/02/14 05:33:48;;;;;;;;;96.63;83.00;;;;;3.69;66.13;103174.50;1992471;28;3673146;-75
2023/02/14 05:35:01;;;;;;;;;90.25;79.00;;;;;3.69;65.90;103174.50;1976520;28;3666884;-75
2023/02/14 05:36:12;;;;;;;;;95.00;80.00;;;;;3.70;65.79;103178.00;1984103;28;2906530;-75
2023/02/14 05:37:24;;;;;;;;;90.33;75.00;;;;;3.69;66.27;103176.22;1962352;28;3651239;-75
2023/02/14 05:38:37;;;;;;;;;93.00;82.00;;;;;3.68;65.89;103172.72;1976128;28;4423115;-75
2023/02/14 05:39:51;;;;;;;;;91.50;80.13;;;;;3.68;65.92;103174.47;1992960;28;3681434;-75
2023/02/14 05:41:05;;;;;;;;;96.25;81.63;;;;;3.68;65.84;103177.94;1962902;28;3663775;-75
2023/02/14 05:42:17;;;;;;;;;93.00;81.00;;;;;3.67;66.05;103173.59;1957565;28;4423119;-75
2023/02/14 05:43:31;;;;;;;;;100.88;85.88;;;;;3.67;66.57;103170.09;1992909;28;3695012;-75
2023/02/14 05:44:45;;;;;;;;;99.13;84.38;;;;;3.67;66.52;103172.69;1980783;28;3666875;-75
2023/02/14 05:45:57;;;;;;;;;103.50;85.50;;;;;3.67;66.00;103172.69;2004318;28;2578369;-75
2023/02/14 05:47:09;;;;;;;;;94.75;81.75;;;;;3.67;66.38;103173.59;1967585;28;3661640;-75
2023/02/14 05:48:21;;;;;;;;;100.00;86.33;;;;;3.65;66.06;103174.34;1990974;28;2916969;-75
2023/02/14 05:49:34;;;;;;;;;95.00;80.25;;;;;3.66;66.20;103170.91;1998274;28;4427348;-75
2023/02/14 05:50:45;;;;;;;;;94.50;78.00;;;;;3.65;66.24;103175.25;1982436;28;2576317;-75
2023/02/14 05:51:59;;;;;;;;;93.78;78.00;;;;;3.65;66.45;103180.44;1976154;28;3681588;-75
2023/02/14 05:53:11;;;;;;;;;92.50;82.50;;;;;3.65;65.88;103174.34;1982398;28;2568516;-75
2023/02/14 05:54:24;;;;;;;;;102.75;86.50;;;;;3.65;66.19;103174.34;1960559;28;4442930;-75
2023/02/14 05:55:35;;;;;;;;;92.50;80.50;;;;;3.65;66.55;103182.16;1993564;28;2569006;-75